world map with TTJ marked

TTJ - Airport

This information may not be accurate or current and is not valid for navigation or flight planning. No warranty of fitness for any purpose is made or implied.

flag of Tottoriflag of Japan

Donate via PayPal

Additional information is available on the NEW Great Circle Mapper

Location
City:  Tottori, Tottori, Japan
Name:Tottori Airport
ICAO / IATA:RJOR / TTJ

Details
Type:Airport (Aerodrome, Airfield)
Latitude:35°31'48"N (35.530069)
Longitude:134°10'00"E (134.166553)
Datum:WGS 1984
Elevation:65 ft (20 m)
Runways:1
Longest:6562 × 150 ft (2000 × 45.5 m)

Time
Timezone:UTC+9 (DST+11)
Local Time:

Weather
METAR:RJOR  132200Z 34018KT 9999 FEW030 SCT035 13/05 Q1018

Related Locations
Nearby:
Farthest:SUEX: 12199 mi / 19632 km
Montevideo East [Montevideo East UIR], UY

Find:

   beyond  
but within

Other Information
Maps:
Sources:

  


 


Great Circle Mapper   Great Circle Mapper
Great Circle Mapper FAQ   Great Circle Mapper FAQ
  Karl's Home Page
KLSē   KLSē Home
   GC on Facebook
Airlines of the World   Airlines of the World
Donate via PayPal


Copyright © 2004-2018, Karl L. Swartz. All rights reserved.
All trademarks mentioned herein belong to their respective owners.

Please see credits for attribution and copyright information.

Karl Swartz <karl@kls2.com>
  Powered by FreeBSD
Valid HTML 4.01!
Labeled with ICRA
hCard Microformat
Geo Microformat